createdAt,value
2017-08-26T00:02:30.671Z,94528.95
2017-08-26T00:04:58.418Z,94528.45
2017-08-26T00:07:26.234Z,94523.45
2017-08-26T00:19:03.038Z,94514.41
2017-08-26T00:21:30.774Z,94515.56
2017-08-26T00:23:59.365Z,94517.58
2017-08-26T00:26:27.158Z,94516.08
2017-08-26T00:28:54.879Z,94520.02
2017-08-26T00:31:22.783Z,94518.28
2017-08-26T00:33:50.544Z,94509.94
2017-08-26T00:36:18.243Z,94510.80
2017-08-26T00:38:45.970Z,94503.45
2017-08-26T00:41:13.669Z,94503.61
2017-08-26T00:43:41.474Z,94501.98
2017-08-26T00:46:09.460Z,94506.35
2017-08-26T00:48:37.240Z,94519.75
2017-08-26T00:51:05.021Z,94510.23
2017-08-26T00:53:32.773Z,94518.70
2017-08-26T00:56:00.613Z,94513.55
2017-08-26T00:58:29.183Z,94516.08
2017-08-26T01:00:57.008Z,94514.65
2017-08-26T01:03:24.793Z,94515.11
2017-08-26T01:05:52.567Z,94515.31
2017-08-26T01:08:20.353Z,94517.64
2017-08-26T01:10:48.134Z,94515.03
2017-08-26T01:13:15.843Z,94516.97
2017-08-26T01:15:43.636Z,94512.87
2017-08-26T01:18:11.384Z,94521.77
2017-08-26T01:20:39.869Z,94514.21
2017-08-26T01:23:07.658Z,94511.32
2017-08-26T01:25:35.556Z,94514.31
2017-08-26T01:28:03.437Z,94514.69
2017-08-26T01:30:31.516Z,94519.70
2017-08-26T01:32:59.315Z,94524.27
2017-08-26T01:35:27.076Z,94522.14
2017-08-26T01:37:54.823Z,94522.22
2017-08-26T01:40:22.577Z,94522.64
2017-08-26T01:42:50.357Z,94519.97
2017-08-26T01:45:18.134Z,94517.85
2017-08-26T01:47:45.828Z,94520.20
2017-08-26T01:50:13.601Z,94524.85
2017-08-26T01:52:41.305Z,94523.58
2017-08-26T01:55:09.071Z,94525.56
2017-08-26T01:57:36.783Z,94525.58
2017-08-26T02:00:04.574Z,94523.75
2017-08-26T02:02:32.284Z,94522.92
2017-08-26T02:04:59.980Z,94517.44
2017-08-26T02:07:27.705Z,94516.81
2017-08-26T02:09:55.498Z,94523.86
2017-08-26T02:12:23.240Z,94521.66
2017-08-26T02:14:50.951Z,94519.67
2017-08-26T02:17:18.900Z,94523.03
2017-08-26T02:19:47.653Z,94524.08
2017-08-26T02:22:15.371Z,94521.73
2017-08-26T02:24:43.130Z,94521.45
2017-08-26T02:27:10.853Z,94526.02
2017-08-26T02:29:38.620Z,94526.42
2017-08-26T02:32:06.337Z,94518.13
2017-08-26T02:34:34.073Z,94519.18
2017-08-26T02:37:01.846Z,94519.55
2017-08-26T02:39:30.478Z,94525.82
2017-08-26T02:41:58.183Z,94516.20
2017-08-26T02:44:25.981Z,94521.30
2017-08-26T02:46:53.730Z,94524.66
2017-08-26T02:49:21.437Z,94526.91
2017-08-26T02:51:49.155Z,94528.94
2017-08-26T02:54:17.940Z,94528.03
2017-08-26T02:56:45.701Z,94534.38
2017-08-26T02:59:14.525Z,94535.20
2017-08-26T03:01:42.297Z,94539.84
2017-08-26T03:04:10.016Z,94539.86
2017-08-26T03:06:37.812Z,94537.72
2017-08-26T03:09:05.506Z,94542.05
2017-08-26T03:11:34.441Z,94544.06
2017-08-26T03:14:02.159Z,94541.48
2017-08-26T03:16:29.911Z,94543.31
2017-08-26T03:18:57.599Z,94546.59
2017-08-26T03:21:25.317Z,94547.42
2017-08-26T03:23:53.025Z,94548.12
2017-08-26T03:26:20.777Z,94548.19
2017-08-26T03:28:48.514Z,94559.33
2017-08-26T03:31:16.215Z,94559.15
2017-08-26T03:33:43.966Z,94561.78
2017-08-26T03:36:12.136Z,94558.30
2017-08-26T03:38:39.847Z,94562.72
2017-08-26T03:41:07.578Z,94557.66
2017-08-26T03:43:35.344Z,94557.19
2017-08-26T03:46:04.083Z,94561.48
2017-08-26T03:48:31.846Z,94562.56
2017-08-26T03:50:59.538Z,94557.79
2017-08-26T03:53:27.278Z,94560.76
2017-08-26T03:55:55.015Z,94570.08
2017-08-26T03:58:22.723Z,94563.87
2017-08-26T04:00:50.478Z,94569.69
2017-08-26T04:03:18.178Z,94571.77
2017-08-26T04:05:45.914Z,94572.27
2017-08-26T04:08:14.063Z,94584.10
2017-08-26T04:10:41.756Z,94570.12
2017-08-26T04:13:09.508Z,94580.08
2017-08-26T04:15:37.286Z,94580.06
2017-08-26T04:18:05.615Z,94576.20
2017-08-26T04:20:33.297Z,94586.16
2017-08-26T04:23:01.044Z,94584.11
2017-08-26T04:25:28.846Z,94583.77
2017-08-26T04:27:56.636Z,94584.91
2017-08-26T04:30:24.322Z,94582.81
2017-08-26T04:32:53.060Z,94583.73
2017-08-26T04:35:20.871Z,94582.06
2017-08-26T04:37:48.618Z,94596.52
2017-08-26T04:40:16.343Z,94595.02
2017-08-26T04:42:44.112Z,94593.84
2017-08-26T04:45:11.860Z,94591.46
2017-08-26T04:47:39.630Z,94588.52
2017-08-26T04:50:07.402Z,94598.44
2017-08-26T04:52:35.870Z,94596.21
2017-08-26T04:55:03.574Z,94603.50
2017-08-26T04:57:31.382Z,94609.34
2017-08-26T04:59:59.142Z,94607.78
2017-08-26T05:02:26.864Z,94612.75
2017-08-26T05:04:54.582Z,94614.72
2017-08-26T05:07:22.320Z,94610.46
2017-08-26T05:09:50.024Z,94614.55
2017-08-26T05:12:17.736Z,94620.39
2017-08-26T05:14:45.465Z,94616.95
2017-08-26T05:17:13.214Z,94620.03
2017-08-26T05:19:40.998Z,94626.69
2017-08-26T05:22:09.308Z,94624.04
2017-08-26T05:24:37.102Z,94628.22
2017-08-26T05:27:04.823Z,94636.25
2017-08-26T05:29:32.576Z,94633.79
2017-08-26T05:32:00.293Z,94643.02
2017-08-26T05:34:28.037Z,94640.54
2017-08-26T05:36:55.991Z,94638.52
2017-08-26T05:39:23.776Z,94638.67
2017-08-26T05:41:51.709Z,94638.05
2017-08-26T05:44:19.476Z,94643.78
2017-08-26T05:46:47.211Z,94643.94
2017-08-26T05:49:14.990Z,94646.05
2017-08-26T05:51:42.692Z,94645.83
2017-08-26T05:54:10.400Z,94641.64
2017-08-26T05:56:38.821Z,94644.27
2017-08-26T05:59:06.528Z,94640.09
2017-08-26T06:01:34.324Z,94647.75
2017-08-26T06:04:02.964Z,94644.66
2017-08-26T06:06:33.793Z,94644.88
2017-08-26T06:09:01.490Z,94649.70
2017-08-26T06:11:29.271Z,94653.41
2017-08-26T06:13:58.459Z,94649.66
2017-08-26T06:16:26.311Z,94652.43
2017-08-26T06:18:54.092Z,94655.54
2017-08-26T06:21:22.509Z,94647.70
2017-08-26T06:23:50.292Z,94651.70
2017-08-26T06:26:18.022Z,94649.63
2017-08-26T06:28:45.812Z,94646.70
2017-08-26T06:31:13.560Z,94653.09
2017-08-26T06:33:41.328Z,94647.66
2017-08-26T06:36:11.401Z,94636.91
2017-08-26T06:38:39.217Z,94634.94
2017-08-26T06:41:07.523Z,94635.98
2017-08-26T06:43:36.055Z,94630.94
2017-08-26T06:46:03.858Z,94629.86
2017-08-26T06:48:31.618Z,94624.03
2017-08-26T06:50:59.352Z,94626.04
2017-08-26T06:53:27.249Z,94624.17
2017-08-26T06:55:55.138Z,94624.05
2017-08-26T06:58:22.878Z,94622.34
2017-08-26T07:00:51.591Z,94626.58
2017-08-26T07:03:20.657Z,94620.41
2017-08-26T07:05:48.652Z,94618.57
2017-08-26T07:08:16.346Z,94617.86
2017-08-26T07:10:44.125Z,94610.64
2017-08-26T07:13:11.856Z,94614.06
2017-08-26T07:15:41.482Z,94602.58
2017-08-26T07:18:09.286Z,94597.85
2017-08-26T07:20:37.132Z,94595.88
2017-08-26T07:23:04.942Z,94594.52
2017-08-26T07:25:32.690Z,94595.09
2017-08-26T07:28:00.450Z,94589.14
2017-08-26T07:30:28.167Z,94591.11
2017-08-26T07:32:55.944Z,94583.88
2017-08-26T07:35:23.890Z,94592.70
2017-08-26T07:37:51.693Z,94596.93
2017-08-26T07:40:19.596Z,94589.02
2017-08-26T07:42:47.346Z,94594.17
2017-08-26T07:45:15.096Z,94596.66
2017-08-26T07:47:42.814Z,94592.84
2017-08-26T07:50:10.744Z,94595.22
2017-08-26T07:52:38.546Z,94593.52
2017-08-26T07:55:06.343Z,94595.63
2017-08-26T07:57:34.134Z,94599.45
2017-08-26T08:00:01.885Z,94596.14
2017-08-26T08:02:29.608Z,94593.00
2017-08-26T08:04:58.265Z,94592.06
2017-08-26T08:07:26.106Z,94600.83
2017-08-26T08:09:54.014Z,94596.86
2017-08-26T08:12:21.842Z,94594.22
2017-08-26T08:14:49.646Z,94596.91
2017-08-26T08:17:17.439Z,94594.45
2017-08-26T08:19:45.327Z,94590.09
2017-08-26T08:22:13.273Z,94596.39
2017-08-26T08:24:41.138Z,94591.25
2017-08-26T08:27:08.878Z,94589.95
2017-08-26T08:29:36.634Z,94586.37
2017-08-26T08:32:04.459Z,94587.38
2017-08-26T08:34:32.167Z,94579.39
2017-08-26T08:37:00.009Z,94585.52
2017-08-26T08:39:27.868Z,94584.25
2017-08-26T08:41:55.651Z,94576.21
2017-08-26T08:44:23.414Z,94575.69
2017-08-26T08:46:51.138Z,94573.41
2017-08-26T08:49:18.900Z,94570.44
2017-08-26T08:51:46.760Z,94575.16
2017-08-26T08:54:15.642Z,94572.67
2017-08-26T08:56:43.432Z,94562.86
2017-08-26T08:59:11.230Z,94564.20
2017-08-26T09:01:38.998Z,94566.72
2017-08-26T09:04:06.757Z,94566.52
2017-08-26T09:06:34.473Z,94559.70
2017-08-26T09:09:02.252Z,94559.56
2017-08-26T09:11:30.704Z,94554.08
2017-08-26T09:13:58.442Z,94555.80
2017-08-26T09:16:26.159Z,94547.34
2017-08-26T09:18:53.994Z,94545.87
2017-08-26T09:21:21.749Z,94542.45
2017-08-26T09:23:49.506Z,94541.73
2017-08-26T09:26:17.317Z,94544.83
2017-08-26T09:28:46.270Z,94539.55
2017-08-26T09:31:14.053Z,94537.16
2017-08-26T09:33:41.939Z,94537.27
2017-08-26T09:36:09.793Z,94530.59
2017-08-26T09:38:37.555Z,94520.81
2017-08-26T09:41:14.189Z,94520.93
2017-08-26T09:43:41.957Z,94523.36
2017-08-26T09:46:09.725Z,94515.52
2017-08-26T09:48:37.421Z,94516.95
2017-08-26T09:51:05.255Z,94509.08
2017-08-26T09:53:32.964Z,94511.27
2017-08-26T09:56:00.724Z,94503.73
2017-08-26T09:58:29.286Z,94508.39
2017-08-26T10:00:57.101Z,94504.05
2017-08-26T10:03:24.941Z,94507.18
2017-08-26T10:05:52.656Z,94500.77
2017-08-26T10:08:20.425Z,94497.56
2017-08-26T10:10:48.215Z,94495.43
2017-08-26T10:13:16.002Z,94491.34
2017-08-26T10:15:43.791Z,94497.41
2017-08-26T10:18:11.557Z,94490.52
2017-08-26T10:20:39.333Z,94488.58
2017-08-26T10:23:07.094Z,94482.32
2017-08-26T10:25:34.806Z,94478.15
2017-08-26T10:28:02.593Z,94478.59
2017-08-26T10:30:30.426Z,94471.20
2017-08-26T10:32:58.193Z,94461.88
2017-08-26T10:35:26.096Z,94462.95
2017-08-26T10:37:53.875Z,94459.65
2017-08-26T10:40:21.749Z,94461.05
2017-08-26T10:42:49.618Z,94459.44
2017-08-26T10:45:17.364Z,94454.33
2017-08-26T10:47:45.226Z,94452.94
2017-08-26T10:50:13.002Z,94449.06
2017-08-26T10:52:40.799Z,94435.97
2017-08-26T10:55:08.622Z,94439.14
2017-08-26T10:57:36.415Z,94433.72
2017-08-26T11:00:04.262Z,94434.12
2017-08-26T11:02:31.966Z,94429.30
2017-08-26T11:04:59.741Z,94428.69
2017-08-26T11:07:27.446Z,94424.80
2017-08-26T11:09:55.211Z,94426.62
2017-08-26T11:12:22.966Z,94422.48
2017-08-26T11:14:50.720Z,94427.56
2017-08-26T11:17:18.510Z,94418.16
2017-08-26T11:19:46.268Z,94410.95
2017-08-26T11:22:14.108Z,94408.02
2017-08-26T11:24:41.809Z,94410.34
2017-08-26T11:27:09.583Z,94405.97
2017-08-26T11:29:37.319Z,94404.61
2017-08-26T11:32:05.094Z,94395.39
2017-08-26T11:34:32.862Z,94395.39
2017-08-26T11:37:01.634Z,94393.86
2017-08-26T11:39:29.553Z,94392.94
2017-08-26T11:41:57.366Z,94382.90
2017-08-26T11:44:25.116Z,94383.94
2017-08-26T11:46:52.817Z,94379.59
2017-08-26T11:49:20.581Z,94371.38
2017-08-26T11:51:48.276Z,94375.63
2017-08-26T11:54:16.016Z,94372.12
2017-08-26T11:56:43.830Z,94369.80
2017-08-26T11:59:11.555Z,94370.22
2017-08-26T12:01:39.297Z,94368.76
2017-08-26T12:04:07.056Z,94368.95
2017-08-26T12:06:34.833Z,94363.42
2017-08-26T12:09:02.756Z,94369.22
2017-08-26T12:11:30.594Z,94362.41
2017-08-26T12:13:58.389Z,94356.81
2017-08-26T12:16:26.238Z,94350.84
2017-08-26T12:18:53.996Z,94352.81
2017-08-26T12:21:21.954Z,94350.67
2017-08-26T12:23:49.660Z,94345.45
2017-08-26T12:26:17.438Z,94349.77
2017-08-26T12:28:46.433Z,94342.48
2017-08-26T12:31:14.177Z,94349.16
2017-08-26T12:33:41.957Z,94344.25
2017-08-26T12:36:09.785Z,94339.68
2017-08-26T12:38:37.594Z,94340.09
2017-08-26T12:41:05.549Z,94336.41
2017-08-26T12:43:33.661Z,94336.67
2017-08-26T12:46:01.531Z,94334.64
2017-08-26T12:48:29.806Z,94329.59
2017-08-26T12:50:57.526Z,94330.17
2017-08-26T12:53:25.346Z,94326.50
2017-08-26T12:55:53.231Z,94318.08
2017-08-26T12:58:21.077Z,94321.18
2017-08-26T13:00:48.836Z,94318.82
2017-08-26T13:03:16.602Z,94317.80
2017-08-26T13:05:44.402Z,94312.55
2017-08-26T13:08:12.212Z,94310.81
2017-08-26T13:10:40.012Z,94308.08
2017-08-26T13:13:07.803Z,94305.98
2017-08-26T13:15:35.697Z,94296.59
2017-08-26T13:18:03.858Z,94298.28
2017-08-26T13:20:31.619Z,94292.86
2017-08-26T13:22:59.763Z,94291.39
2017-08-26T13:25:27.587Z,94294.53
2017-08-26T13:27:55.382Z,94292.34
2017-08-26T13:30:23.198Z,94285.35
2017-08-26T13:32:51.011Z,94285.19
2017-08-26T13:35:19.110Z,94277.59
2017-08-26T13:37:46.877Z,94276.25
2017-08-26T13:40:14.682Z,94271.91
2017-08-26T13:42:42.536Z,94276.20
2017-08-26T13:45:10.847Z,94275.83
2017-08-26T13:47:38.653Z,94275.08
2017-08-26T13:50:06.475Z,94279.73
2017-08-26T13:52:34.276Z,94267.87
2017-08-26T13:55:02.012Z,94269.87
2017-08-26T13:57:29.787Z,94264.55
2017-08-26T13:59:57.586Z,94260.23
2017-08-26T14:02:25.362Z,94259.38
2017-08-26T14:04:53.794Z,94259.59
2017-08-26T14:07:21.595Z,94264.22
2017-08-26T14:09:49.400Z,94255.19
2017-08-26T14:12:17.100Z,94257.55
2017-08-26T14:14:44.875Z,94259.75
2017-08-26T14:17:12.739Z,94254.16
2017-08-26T14:19:40.461Z,94252.70
2017-08-26T14:22:08.373Z,94256.23
2017-08-26T14:24:36.245Z,94255.00
2017-08-26T14:27:03.955Z,94246.98
2017-08-26T14:29:31.901Z,94246.71
2017-08-26T14:31:59.680Z,94249.41
2017-08-26T14:34:27.416Z,94247.06
2017-08-26T14:36:55.305Z,94240.28
2017-08-26T14:39:23.001Z,94237.73
2017-08-26T14:41:50.750Z,94234.79
2017-08-26T14:44:18.514Z,94221.02
2017-08-26T14:46:46.318Z,94215.53
2017-08-26T14:49:14.027Z,94213.04
2017-08-26T14:51:41.815Z,94209.65
2017-08-26T14:54:09.594Z,94214.89
2017-08-26T14:56:38.457Z,94215.97
2017-08-26T14:59:06.200Z,94217.95
2017-08-26T15:01:33.959Z,94221.25
2017-08-26T15:04:01.820Z,94225.78
2017-08-26T15:06:29.536Z,94225.40
2017-08-26T15:08:57.314Z,94225.55
2017-08-26T15:11:25.032Z,94225.78
2017-08-26T15:13:52.801Z,94225.39
2017-08-26T15:16:20.512Z,94222.80
2017-08-26T15:18:48.261Z,94222.13
2017-08-26T15:21:15.963Z,94215.16
2017-08-26T15:23:43.734Z,94218.95
2017-08-26T15:26:11.532Z,94221.56
2017-08-26T15:28:39.240Z,94223.33
2017-08-26T15:31:06.934Z,94228.94
2017-08-26T15:33:34.665Z,94224.83
2017-08-26T15:36:02.387Z,94228.78
2017-08-26T15:38:30.136Z,94228.03
2017-08-26T15:40:57.871Z,94222.84
2017-08-26T15:43:25.623Z,94221.03
2017-08-26T15:45:53.414Z,94222.92
2017-08-26T15:48:21.125Z,94226.75
2017-08-26T15:50:48.903Z,94224.80
2017-08-26T15:53:16.661Z,94222.00
2017-08-26T15:55:44.429Z,94229.88
2017-08-26T15:58:12.240Z,94232.09
2017-08-26T16:00:39.969Z,94232.20
2017-08-26T16:03:07.698Z,94237.86
2017-08-26T16:05:35.449Z,94237.16
2017-08-26T16:08:03.156Z,94236.39
2017-08-26T16:10:31.323Z,94234.20
2017-08-26T16:12:59.054Z,94238.98
2017-08-26T16:15:26.820Z,94228.58
2017-08-26T16:17:54.614Z,94229.83
2017-08-26T16:20:22.396Z,94228.57
2017-08-26T16:22:50.174Z,94226.61
2017-08-26T16:25:17.914Z,94221.67
2017-08-26T16:27:45.617Z,94221.22
2017-08-26T16:30:13.357Z,94220.04
2017-08-26T16:32:41.042Z,94219.02
2017-08-26T16:35:08.755Z,94212.22
2017-08-26T16:37:36.549Z,94204.28
2017-08-26T16:40:04.312Z,94202.52
2017-08-26T16:42:32.311Z,94207.40
2017-08-26T16:45:00.042Z,94210.72
2017-08-26T16:47:27.732Z,94220.45
2017-08-26T16:49:55.471Z,94223.36
2017-08-26T16:52:23.173Z,94231.14
2017-08-26T16:54:50.886Z,94227.58
2017-08-26T16:57:18.684Z,94227.06
2017-08-26T16:59:46.407Z,94240.91
2017-08-26T17:02:14.108Z,94248.30
2017-08-26T17:04:41.887Z,94241.31
2017-08-26T17:07:09.648Z,94254.06
2017-08-26T17:09:37.333Z,94259.55
2017-08-26T17:12:05.055Z,94264.88
2017-08-26T17:14:32.795Z,94275.48
2017-08-26T17:17:00.608Z,94286.58
2017-08-26T17:19:28.325Z,94282.95
2017-08-26T17:21:56.103Z,94289.91
2017-08-26T17:24:23.832Z,94299.18
2017-08-26T17:26:51.614Z,94299.63
2017-08-26T17:29:19.740Z,94299.66
2017-08-26T17:31:47.537Z,94303.34
2017-08-26T17:34:15.283Z,94299.44
2017-08-26T17:36:42.966Z,94303.88
2017-08-26T17:39:10.791Z,94307.44
2017-08-26T17:41:38.564Z,94304.22
2017-08-26T17:44:06.370Z,94308.80
2017-08-26T17:46:34.084Z,94317.81
2017-08-26T17:49:01.864Z,94305.08
2017-08-26T17:51:29.770Z,94302.03
2017-08-26T17:53:57.607Z,94305.09
2017-08-26T17:56:26.081Z,94316.19
2017-08-26T17:58:53.799Z,94321.41
2017-08-26T18:01:21.653Z,94341.78
2017-08-26T18:03:49.487Z,94350.61
2017-08-26T18:06:17.203Z,94369.34
2017-08-26T18:08:44.961Z,94369.03
2017-08-26T18:11:12.706Z,94388.91
2017-08-26T18:13:40.474Z,94394.83
2017-08-26T18:16:08.192Z,94378.97
2017-08-26T18:18:35.928Z,94387.50
2017-08-26T18:21:03.735Z,94381.36
2017-08-26T18:23:31.453Z,94383.45
2017-08-26T18:25:59.253Z,94386.25
2017-08-26T18:28:27.007Z,94385.36
2017-08-26T18:30:54.746Z,94392.42
2017-08-26T18:33:22.618Z,94401.19
2017-08-26T18:35:50.383Z,94414.03
2017-08-26T18:38:18.247Z,94421.48
2017-08-26T18:40:46.796Z,94433.06
2017-08-26T18:43:14.702Z,94429.52
2017-08-26T18:45:42.630Z,94435.29
2017-08-26T18:48:10.387Z,94444.61
2017-08-26T18:50:39.196Z,94445.94
2017-08-26T18:53:07.051Z,94446.72
2017-08-26T18:55:35.000Z,94449.22
2017-08-26T18:58:02.955Z,94442.45
2017-08-26T19:00:32.671Z,94433.38
2017-08-26T19:03:01.434Z,94422.17
2017-08-26T19:05:29.760Z,94408.27
2017-08-26T19:07:57.665Z,94399.00
2017-08-26T19:10:25.594Z,94415.58
2017-08-26T19:12:54.159Z,94406.27
2017-08-26T19:15:21.970Z,94399.67
2017-08-26T19:17:49.793Z,94404.49
2017-08-26T19:20:17.688Z,94406.13
2017-08-26T19:22:45.578Z,94412.70
2017-08-26T19:25:14.842Z,94415.08
2017-08-26T19:27:43.690Z,94413.35
2017-08-26T19:30:12.141Z,94414.90
2017-08-26T19:32:43.420Z,94420.91
2017-08-26T19:35:12.102Z,94408.50
2017-08-26T19:37:40.682Z,94419.73
2017-08-26T19:40:08.449Z,94415.10
2017-08-26T19:42:41.130Z,94425.61
2017-08-26T19:45:08.982Z,94427.61
2017-08-26T19:47:36.723Z,94439.08
2017-08-26T19:50:04.565Z,94451.94
2017-08-26T19:52:32.622Z,94482.31
2017-08-26T19:55:00.350Z,94481.37
2017-08-26T19:57:28.266Z,94515.06
2017-08-26T19:59:57.376Z,94548.41
2017-08-26T20:02:26.157Z,94544.76
2017-08-26T20:04:54.014Z,94551.78
2017-08-26T20:07:21.886Z,94547.86
2017-08-26T20:09:53.532Z,94541.48
2017-08-26T20:12:24.177Z,94559.02
2017-08-26T20:14:53.033Z,94564.80
2017-08-26T20:17:20.774Z,94568.81
2017-08-26T20:19:48.489Z,94571.96
2017-08-26T20:22:17.958Z,94566.55
2017-08-26T20:24:45.736Z,94562.17
2017-08-26T20:27:15.771Z,94568.89
2017-08-26T20:29:43.535Z,94565.23
2017-08-26T20:32:11.986Z,94557.54
2017-08-26T20:34:39.695Z,94560.19
2017-08-26T20:37:07.497Z,94567.34
2017-08-26T20:39:35.229Z,94562.38
2017-08-26T20:42:02.997Z,94564.73
2017-08-26T20:44:30.761Z,94566.85
2017-08-26T20:46:58.467Z,94566.60
2017-08-26T20:49:26.261Z,94564.63
2017-08-26T20:51:54.039Z,94565.80
2017-08-26T20:54:21.746Z,94566.17
2017-08-26T20:56:49.538Z,94564.97
2017-08-26T20:59:17.369Z,94583.27
2017-08-26T21:01:45.142Z,94582.05
2017-08-26T21:04:12.921Z,94586.41
2017-08-26T21:06:40.686Z,94577.84
2017-08-26T21:09:08.478Z,94577.02
2017-08-26T21:11:36.204Z,94585.08
2017-08-26T21:14:03.953Z,94591.25
2017-08-26T21:16:32.007Z,94591.09
2017-08-26T21:18:59.771Z,94586.22
2017-08-26T21:21:27.538Z,94585.15
2017-08-26T21:23:55.308Z,94581.64
2017-08-26T21:26:23.038Z,94584.92
2017-08-26T21:28:51.129Z,94591.63
2017-08-26T21:31:18.969Z,94581.55
2017-08-26T21:33:46.702Z,94578.98
2017-08-26T21:36:14.528Z,94577.44
2017-08-26T21:38:42.338Z,94571.73
2017-08-26T21:41:10.131Z,94576.69
2017-08-26T21:43:37.938Z,94575.91
2017-08-26T21:46:06.877Z,94576.79
2017-08-26T21:48:34.870Z,94570.73
2017-08-26T21:51:02.633Z,94581.23
2017-08-26T21:53:30.394Z,94572.19
2017-08-26T21:55:58.149Z,94572.59
2017-08-26T21:58:25.928Z,94563.91
2017-08-26T22:00:54.432Z,94568.28
2017-08-26T22:03:22.158Z,94558.50
2017-08-26T22:05:49.998Z,94550.98
2017-08-26T22:08:17.726Z,94546.70
2017-08-26T22:10:45.508Z,94555.05
2017-08-26T22:13:13.357Z,94548.95
2017-08-26T22:15:41.108Z,94542.95
2017-08-26T22:18:08.913Z,94544.23
2017-08-26T22:20:36.626Z,94536.23
2017-08-26T22:23:04.458Z,94531.59
2017-08-26T22:25:32.239Z,94522.27
2017-08-26T22:27:59.981Z,94511.98
2017-08-26T22:30:27.922Z,94508.09
2017-08-26T22:32:55.640Z,94493.31
2017-08-26T22:35:23.473Z,94489.11
2017-08-26T22:37:51.172Z,94475.48
2017-08-26T22:40:19.050Z,94473.25
2017-08-26T22:42:46.776Z,94467.39
2017-08-26T22:45:14.531Z,94457.48
2017-08-26T22:47:42.316Z,94460.42
2017-08-26T22:50:10.063Z,94454.09
2017-08-26T22:52:37.931Z,94448.95
2017-08-26T22:55:06.786Z,94448.79
2017-08-26T22:57:34.500Z,94461.99
2017-08-26T23:00:02.214Z,94469.39
2017-08-26T23:02:30.005Z,94462.33
2017-08-26T23:04:57.698Z,94456.37
2017-08-26T23:07:25.473Z,94440.80
2017-08-26T23:09:53.286Z,94449.14
2017-08-26T23:12:21.112Z,94452.37
2017-08-26T23:14:48.828Z,94443.91
2017-08-26T23:17:16.590Z,94458.17
2017-08-26T23:19:44.315Z,94455.53
2017-08-26T23:22:12.012Z,94449.47
2017-08-26T23:24:39.796Z,94451.97
2017-08-26T23:27:07.537Z,94455.97
2017-08-26T23:29:35.231Z,94451.67
2017-08-26T23:32:03.600Z,94451.22
2017-08-26T23:34:31.320Z,94457.54
2017-08-26T23:36:59.030Z,94457.99
2017-08-26T23:39:26.806Z,94471.83
2017-08-26T23:41:54.521Z,94463.12
2017-08-26T23:44:22.272Z,94459.45
2017-08-26T23:46:50.168Z,94466.03
2017-08-26T23:49:17.891Z,94471.58
2017-08-26T23:51:45.624Z,94472.27
2017-08-26T23:54:13.328Z,94473.19
2017-08-26T23:56:41.030Z,94466.73
2017-08-26T23:59:08.775Z,94465.94
